KBGF

Details ICAO KBGF
Name WINCHESTER MUNI
Region United States
Timezone America/Chicago (UTC-5.0)
Plans Departing 0
Arriving 2
Stats Elevation 979 ft / 298 m (AMSL)
Location 35.177535° -86.066165°
Runways 1
Magnetic Variation 4.193° W
Sunrise 2018-05-22 10:37:01 UTC / 2018-05-22 05:37:01 Local
Sunset 2018-05-23 00:47:44 UTC / 2018-05-22 19:47:44 Local
Advertisement - Login to hide

Runways

ID Width Length Bearing (true) Bearing (mag) Surface Threshold Offset Overrun Length
18 75 ft / 23 m 5,015 ft / 1,528 m 181.69° 185.88° Asphalt 0 ft / 0 m 0 ft / 0 m
36 75 ft / 23 m 5,015 ft / 1,528 m 1.69° 5.88° Asphalt 0 ft / 0 m 0 ft / 0 m

Map

Weather


0- 5 10 15 20 25 30 35+ Temperature / ° C

Clouds and Precipitation
Forecast for 2018-05-22 18:00 UTC. Updated 5 hours ago

Ground ~20,000 ft ~40,000 ft Winds

METAR

KBGF 222215Z AUTO 20003KT 10SM SCT095 BKN120 26/20 A3001 RMK A01

TAF

Not found

Frequencies

Recorded 121.67 MHz AWOS 3
Unicom 122.80 MHz CTAF/UNICOM
Warning: Do not use this data for real-world aviation or navigation. No guarantee of current accuracy is given.